Wetterdaten: Woche 16.05.16 - 22.05.16 (KW20)
Datum Zeit Temp. A. Feuchte A. Luftdruck Regen Wind Richtung Taupunkt Windchill Windben
16.05.2016 00:00 5,2 C 78 % 1022,5 hPa 0,0 l/m 2,2 km/h (1 Bft) O 1,6 C 5,2 C 4,2 km/h (1 Bft)
16.05.2016 01:00 4,9 C 77 % 1022,5 hPa 0,0 l/m 1,6 km/h (1 Bft) O 1,2 C 4,9 C 3,5 km/h (1 Bft)
16.05.2016 02:00 4,7 C 79 % 1022,2 hPa 0,0 l/m 1,3 km/h (1 Bft) O 1,3 C 4,7 C 2,9 km/h (1 Bft)
16.05.2016 03:00 4,7 C 79 % 1021,8 hPa 0,0 l/m 1,0 km/h (0 Bft) O 1,3 C 4,7 C 2,5 km/h (1 Bft)
16.05.2016 04:00 4,0 C 84 % 1021,6 hPa 0,0 l/m 0,2 km/h (0 Bft) O 1,5 C 4,0 C 1,0 km/h (0 Bft)
16.05.2016 05:00 4,3 C 83 % 1021,1 hPa 0,0 l/m 1,8 km/h (1 Bft) O 1,6 C 4,3 C 3,9 km/h (1 Bft)
16.05.2016 06:00 4,6 C 83 % 1021,1 hPa 0,0 l/m 3,9 km/h (1 Bft) O 2,0 C 4,5 C 7,9 km/h (2 Bft)
16.05.2016 07:00 3,9 C 89 % 1021,3 hPa 1,3 l/m 3,8 km/h (1 Bft) O 2,2 C 3,9 C 6,9 km/h (2 Bft)
16.05.2016 08:00 3,7 C 92 % 1021,2 hPa 0,8 l/m 3,8 km/h (1 Bft) O 2,5 C 3,6 C 6,8 km/h (2 Bft)
16.05.2016 09:00 4,1 C 93 % 1021,5 hPa 0,5 l/m 4,1 km/h (1 Bft) O 3,0 C 4,0 C 7,7 km/h (2 Bft)
16.05.2016 10:00 4,8 C 92 % 1021,5 hPa 0,3 l/m 4,7 km/h (1 Bft) O-NO 3,7 C 4,8 C 9,1 km/h (2 Bft)
16.05.2016 11:00 6,0 C 91 % 1021,4 hPa 0,0 l/m 5,1 km/h (1 Bft) O-NO 4,7 C 5,8 C 9,6 km/h (2 Bft)
16.05.2016 12:00 6,2 C 90 % 1021,3 hPa 0,5 l/m 5,5 km/h (2 Bft) O-NO 4,7 C 6,0 C 11,3 km/h (2 Bft)
16.05.2016 13:00 6,4 C 92 % 1021,0 hPa 0,3 l/m 4,1 km/h (1 Bft) O-NO 5,1 C 6,4 C 7,8 km/h (2 Bft)
16.05.2016 14:00 7,4 C 89 % 1020,7 hPa 0,0 l/m 4,3 km/h (1 Bft) O 5,7 C 7,3 C 9,6 km/h (2 Bft)
16.05.2016 15:00 7,3 C 87 % 1020,5 hPa 0,0 l/m 4,2 km/h (1 Bft) O 5,3 C 7,3 C 9,6 km/h (2 Bft)
16.05.2016 16:00 7,0 C 88 % 1020,3 hPa 0,0 l/m 4,8 km/h (1 Bft) O-NO 5,1 C 7,0 C 11,7 km/h (2 Bft)
16.05.2016 17:00 6,8 C 91 % 1020,3 hPa 0,5 l/m 2,0 km/h (1 Bft) O-SO 5,3 C 6,8 C 4,5 km/h (1 Bft)
16.05.2016 18:00 6,7 C 91 % 1020,4 hPa 0,0 l/m 1,6 km/h (1 Bft) O-NO 5,3 C 6,7 C 4,0 km/h (1 Bft)
16.05.2016 19:00 6,6 C 91 % 1020,3 hPa 0,0 l/m 2,4 km/h (1 Bft) O-NO 5,3 C 6,6 C 6,1 km/h (2 Bft)
16.05.2016 20:00 6,1 C 92 % 1020,5 hPa 0,0 l/m 3,3 km/h (1 Bft) O-NO 5,0 C 6,1 C 6,5 km/h (2 Bft)
16.05.2016 21:00 5,6 C 93 % 1020,8 hPa 0,0 l/m 2,7 km/h (1 Bft) O 4,5 C 5,6 C 6,2 km/h (2 Bft)
16.05.2016 22:00 5,1 C 93 % 1021,3 hPa 0,0 l/m 1,5 km/h (1 Bft) O 4,1 C 5,1 C 3,9 km/h (1 Bft)
16.05.2016 23:00 5,0 C 94 % 1021,4 hPa 0,0 l/m 0,9 km/h (0 Bft) O 4,1 C 5,0 C 3,0 km/h (1 Bft)
17.05.2016 00:00 5,0 C 94 % 1021,3 hPa 0,0 l/m 1,5 km/h (1 Bft) O 4,1 C 5,0 C 3,5 km/h (1 Bft)
17.05.2016 01:00 5,1 C 94 % 1021,1 hPa 0,0 l/m 0,6 km/h (0 Bft) O-NO 4,3 C 5,1 C 2,0 km/h (1 Bft)
17.05.2016 02:00 4,8 C 95 % 1020,7 hPa 0,0 l/m 0,3 km/h (0 Bft) O-NO 4,1 C 4,8 C 1,7 km/h (1 Bft)
17.05.2016 03:00 4,7 C 95 % 1020,6 hPa 0,0 l/m 0,1 km/h (0 Bft) O-NO 4,0 C 4,7 C 1,0 km/h (0 Bft)
17.05.2016 04:00 4,3 C 96 % 1020,2 hPa 0,0 l/m 0,0 km/h (0 Bft) O-NO 3,7 C 4,3 C 0,0 km/h (0 Bft)
17.05.2016 05:00 4,4 C 96 % 1020,1 hPa 0,0 l/m 0,4 km/h (0 Bft) O-NO 3,8 C 4,4 C 2,2 km/h (1 Bft)
17.05.2016 06:00 4,4 C 96 % 1020,1 hPa 0,0 l/m 0,1 km/h (0 Bft) SO 3,8 C 4,4 C 1,1 km/h (1 Bft)
17.05.2016 07:00 5,4 C 95 % 1020,1 hPa 0,0 l/m 0,7 km/h (0 Bft) SO 4,6 C 5,4 C 2,7 km/h (1 Bft)
17.05.2016 08:00 7,3 C 85 % 1020,4 hPa 0,0 l/m 2,8 km/h (1 Bft) O-NO 4,9 C 7,3 C 7,0 km/h (2 Bft)
17.05.2016 09:00 8,5 C 77 % 1020,5 hPa 0,0 l/m 4,3 km/h (1 Bft) O-NO 4,6 C 8,5 C 8,9 km/h (2 Bft)
17.05.2016 10:00 9,9 C 60 % 1020,5 hPa 0,0 l/m 4,5 km/h (1 Bft) O-NO 2,5 C 9,9 C 12,5 km/h (2 Bft)
17.05.2016 11:00 10,3 C 56 % 1020,5 hPa 0,0 l/m 4,2 km/h (1 Bft) O-NO 2,1 C 10,3 C 10,2 km/h (2 Bft)
17.05.2016 12:00 10,5 C 57 % 1020,4 hPa 0,3 l/m 3,7 km/h (1 Bft) O-NO 2,3 C 10,5 C 8,3 km/h (2 Bft)
17.05.2016 13:00 12,2 C 52 % 1020,0 hPa 0,0 l/m 5,0 km/h (1 Bft) O 2,5 C 12,1 C 12,1 km/h (2 Bft)
17.05.2016 14:00 12,9 C 50 % 1019,5 hPa 0,0 l/m 4,9 km/h (1 Bft) O-NO 2,6 C 12,9 C 12,4 km/h (2 Bft)
17.05.2016 15:00 13,1 C 49 % 1019,1 hPa 0,0 l/m 4,6 km/h (1 Bft) O-NO 2,6 C 13,0 C 10,3 km/h (2 Bft)
17.05.2016 16:00 13,2 C 51 % 1018,7 hPa 0,0 l/m 3,7 km/h (1 Bft) O-NO 3,2 C 13,2 C 10,3 km/h (2 Bft)
17.05.2016 17:00 13,6 C 51 % 1018,2 hPa 0,0 l/m 3,9 km/h (1 Bft) O 3,7 C 13,6 C 8,5 km/h (2 Bft)
17.05.2016 18:00 13,9 C 52 % 1017,9 hPa 0,0 l/m 2,9 km/h (1 Bft) O-NO 4,2 C 13,9 C 6,2 km/h (2 Bft)
17.05.2016 19:00 12,7 C 56 % 1017,8 hPa 0,0 l/m 2,4 km/h (1 Bft) O-SO 4,3 C 12,7 C 5,7 km/h (2 Bft)
17.05.2016 20:00 11,0 C 67 % 1017,8 hPa 0,0 l/m 0,4 km/h (0 Bft) O-SO 5,0 C 11,0 C 1,5 km/h (1 Bft)
17.05.2016 21:00 9,3 C 76 % 1017,9 hPa 0,0 l/m 1,1 km/h (0 Bft) O 5,3 C 9,3 C 2,5 km/h (1 Bft)
17.05.2016 22:00 8,1 C 83 % 1018,1 hPa 0,0 l/m 0,2 km/h (0 Bft) O 5,3 C 8,1 C 1,5 km/h (1 Bft)
17.05.2016 23:00 7,4 C 86 % 1017,8 hPa 0,0 l/m 0,2 km/h (0 Bft) O 5,3 C 7,4 C 0,9 km/h (0 Bft)
18.05.2016 00:00 7,3 C 88 % 1017,6 hPa 0,0 l/m 0,2 km/h (0 Bft) O 5,5 C 7,3 C 1,1 km/h (1 Bft)
18.05.2016 01:00 7,4 C 89 % 1017,2 hPa 0,0 l/m 0,1 km/h (0 Bft) O-SO 5,6 C 7,4 C 0,5 km/h (0 Bft)
18.05.2016 02:00 7,1 C 90 % 1016,6 hPa 0,0 l/m 0,0 km/h (0 Bft) O-SO 5,6 C 7,1 C 0,1 km/h (0 Bft)
18.05.2016 03:00 6,7 C 91 % 1016,2 hPa 0,0 l/m 0,0 km/h (0 Bft) O-SO 5,2 C 6,7 C 0,2 km/h (0 Bft)
18.05.2016 04:00 5,5 C 92 % 1015,7 hPa 0,0 l/m 0,1 km/h (0 Bft) O-SO 4,4 C 5,5 C 0,7 km/h (0 Bft)
18.05.2016 05:00 5,0 C 93 % 1015,3 hPa 0,0 l/m 0,0 km/h (0 Bft) O-SO 4,0 C 5,0 C 0,7 km/h (0 Bft)
18.05.2016 06:00 4,8 C 94 % 1015,2 hPa 0,0 l/m 0,1 km/h (0 Bft) O-SO 3,9 C 4,8 C 0,8 km/h (0 Bft)
18.05.2016 07:00 6,5 C 91 % 1015,0 hPa 0,0 l/m 0,1 km/h (0 Bft) O-SO 5,1 C 6,5 C 0,5 km/h (0 Bft)
18.05.2016 08:00 11,8 C 75 % 1014,8 hPa 0,0 l/m 1,0 km/h (0 Bft) O-SO 7,6 C 11,8 C 3,2 km/h (1 Bft)
18.05.2016 09:00 14,0 C 65 % 1014,4 hPa 0,0 l/m 2,6 km/h (1 Bft) NW 7,4 C 14,0 C 5,4 km/h (1 Bft)
18.05.2016 10:00 15,4 C 56 % 1013,8 hPa 0,0 l/m 3,9 km/h (1 Bft) NO 6,5 C 15,3 C 9,1 km/h (2 Bft)
18.05.2016 11:00 15,4 C 52 % 1013,3 hPa 0,0 l/m 3,8 km/h (1 Bft) NO 5,6 C 15,4 C 8,3 km/h (2 Bft)
18.05.2016 12:00 16,5 C 48 % 1012,7 hPa 0,0 l/m 4,5 km/h (1 Bft) N-NO 5,5 C 16,5 C 9,1 km/h (2 Bft)
18.05.2016 13:00 17,3 C 45 % 1011,7 hPa 0,0 l/m 4,8 km/h (1 Bft) O 5,2 C 17,3 C 11,4 km/h (2 Bft)
18.05.2016 14:00 17,3 C 47 % 1010,9 hPa 0,0 l/m 3,6 km/h (1 Bft) NO 5,7 C 17,3 C 7,9 km/h (2 Bft)
18.05.2016 15:00 17,9 C 41 % 1010,4 hPa 0,0 l/m 5,2 km/h (1 Bft) O-NO 4,3 C 17,9 C 10,8 km/h (2 Bft)
18.05.2016 16:00 18,5 C 41 % 1009,7 hPa 0,0 l/m 5,0 km/h (1 Bft) NO 5,0 C 18,4 C 12,1 km/h (2 Bft)
18.05.2016 17:00 19,0 C 40 % 1008,7 hPa 0,0 l/m 3,8 km/h (1 Bft) O 5,2 C 19,0 C 9,4 km/h (2 Bft)
18.05.2016 18:00 17,8 C 45 % 1008,4 hPa 0,0 l/m 3,4 km/h (1 Bft) NO 5,6 C 17,7 C 6,3 km/h (2 Bft)
18.05.2016 19:00 16,1 C 58 % 1008,0 hPa 0,0 l/m 2,0 km/h (1 Bft) O 7,9 C 16,1 C 5,1 km/h (1 Bft)
18.05.2016 20:00 14,0 C 68 % 1007,7 hPa 0,0 l/m 2,3 km/h (1 Bft) O-NO 8,1 C 14,0 C 5,5 km/h (2 Bft)
18.05.2016 21:00 12,6 C 74 % 1007,4 hPa 0,0 l/m 2,2 km/h (1 Bft) O-NO 8,0 C 12,6 C 4,7 km/h (1 Bft)
18.05.2016 22:00 11,1 C 80 % 1007,3 hPa 0,0 l/m 0,3 km/h (0 Bft) SO 7,8 C 11,1 C 1,9 km/h (1 Bft)
18.05.2016 23:00 10,5 C 85 % 1007,9 hPa 1,0 l/m 5,6 km/h (2 Bft) O-NO 8,1 C 10,0 C 13,7 km/h (3 Bft)
19.05.2016 00:00 9,6 C 90 % 1008,1 hPa 1,0 l/m 5,0 km/h (1 Bft) O-NO 8,1 C 9,3 C 10,1 km/h (2 Bft)
19.05.2016 01:00 8,8 C 94 % 1007,2 hPa 0,0 l/m 1,2 km/h (1 Bft) O-NO 7,9 C 8,8 C 3,1 km/h (1 Bft)
19.05.2016 02:00 8,5 C 95 % 1006,8 hPa 0,0 l/m 0,5 km/h (0 Bft) O 7,7 C 8,5 C 1,7 km/h (1 Bft)
19.05.2016 03:00 8,1 C 94 % 1007,3 hPa 4,6 l/m 3,1 km/h (1 Bft) O 7,2 C 8,1 C 5,8 km/h (2 Bft)
19.05.2016 04:00 7,4 C 95 % 1007,1 hPa 0,0 l/m 0,6 km/h (0 Bft) O 6,6 C 7,4 C 2,1 km/h (1 Bft)
19.05.2016 05:00 7,4 C 95 % 1007,4 hPa 0,0 l/m 3,0 km/h (1 Bft) O 6,7 C 7,3 C 5,5 km/h (2 Bft)
19.05.2016 06:00 7,2 C 95 % 1007,6 hPa 0,3 l/m 2,9 km/h (1 Bft) O 6,5 C 7,2 C 6,1 km/h (2 Bft)
19.05.2016 07:00 7,5 C 95 % 1008,2 hPa 0,0 l/m 2,7 km/h (1 Bft) O-NO 6,8 C 7,5 C 7,8 km/h (2 Bft)
19.05.2016 08:00 8,1 C 94 % 1009,2 hPa 0,0 l/m 4,0 km/h (1 Bft) O-NO 7,1 C 8,1 C 9,5 km/h (2 Bft)
19.05.2016 09:00 8,2 C 93 % 1009,9 hPa 0,0 l/m 3,6 km/h (1 Bft) O-NO 7,1 C 8,2 C 7,3 km/h (2 Bft)
19.05.2016 10:00 8,8 C 90 % 1010,7 hPa 0,0 l/m 3,3 km/h (1 Bft) O-NO 7,2 C 8,8 C 7,6 km/h (2 Bft)
19.05.2016 11:00 10,0 C 82 % 1011,2 hPa 0,0 l/m 4,8 km/h (1 Bft) O 7,1 C 9,9 C 11,8 km/h (2 Bft)
19.05.2016 12:00 10,9 C 79 % 1011,6 hPa 0,0 l/m 4,5 km/h (1 Bft) NO 7,3 C 10,9 C 9,5 km/h (2 Bft)
19.05.2016 13:00 11,2 C 78 % 1012,2 hPa 0,0 l/m 4,9 km/h (1 Bft) O 7,4 C 11,1 C 12,9 km/h (3 Bft)
19.05.2016 14:00 11,8 C 71 % 1012,7 hPa 0,0 l/m 4,7 km/h (1 Bft) O 6,7 C 11,8 C 11,8 km/h (2 Bft)
19.05.2016 15:00 11,7 C 74 % 1013,2 hPa 0,0 l/m 4,3 km/h (1 Bft) O 7,2 C 11,7 C 9,8 km/h (2 Bft)
19.05.2016 16:00 12,6 C 69 % 1013,7 hPa 0,0 l/m 3,1 km/h (1 Bft) O 7,1 C 12,6 C 7,8 km/h (2 Bft)
19.05.2016 17:00 13,1 C 64 % 1014,2 hPa 0,0 l/m 3,6 km/h (1 Bft) O 6,3 C 13,1 C 8,1 km/h (2 Bft)
19.05.2016 18:00 13,7 C 61 % 1014,5 hPa 0,0 l/m 3,1 km/h (1 Bft) O-NO 6,2 C 13,7 C 7,1 km/h (2 Bft)
19.05.2016 19:00 12,5 C 65 % 1015,5 hPa 0,0 l/m 3,1 km/h (1 Bft) O 6,0 C 12,5 C 7,9 km/h (2 Bft)
19.05.2016 20:00 10,7 C 75 % 1016,8 hPa 0,0 l/m 1,9 km/h (1 Bft) O 6,5 C 10,7 C 4,5 km/h (1 Bft)
19.05.2016 21:00 9,3 C 81 % 1017,7 hPa 0,0 l/m 1,4 km/h (1 Bft) O-SO 6,2 C 9,3 C 3,1 km/h (1 Bft)
19.05.2016 22:00 7,2 C 87 % 1018,5 hPa 0,0 l/m 0,0 km/h (0 Bft) O-SO 5,1 C 7,2 C 0,5 km/h (0 Bft)
19.05.2016 23:00 5,8 C 92 % 1019,1 hPa 0,0 l/m 0,1 km/h (0 Bft) O-SO 4,6 C 5,8 C 0,9 km/h (0 Bft)
20.05.2016 00:00 5,5 C 93 % 1019,4 hPa 0,0 l/m 0,3 km/h (0 Bft) O-SO 4,5 C 5,5 C 1,0 km/h (0 Bft)
20.05.2016 01:00 4,8 C 94 % 1019,7 hPa 0,0 l/m 0,2 km/h (0 Bft) O-SO 4,0 C 4,8 C 0,9 km/h (0 Bft)
20.05.2016 02:00 4,2 C 95 % 1020,3 hPa 0,0 l/m 0,4 km/h (0 Bft) O-SO 3,5 C 4,2 C 1,5 km/h (1 Bft)
20.05.2016 03:00 3,8 C 95 % 1020,5 hPa 0,0 l/m 0,4 km/h (0 Bft) O-SO 3,1 C 3,8 C 1,5 km/h (1 Bft)
20.05.2016 04:00 3,5 C 96 % 1020,6 hPa 0,0 l/m 0,6 km/h (0 Bft) W-SW 2,8 C 3,5 C 2,0 km/h (1 Bft)
20.05.2016 05:00 3,0 C 96 % 1020,9 hPa 0,0 l/m 0,2 km/h (0 Bft) W-SW 2,4 C 3,0 C 1,1 km/h (1 Bft)
20.05.2016 06:00 2,7 C 96 % 1020,9 hPa 0,0 l/m 0,0 km/h (0 Bft) W-SW 2,1 C 2,7 C 0,3 km/h (0 Bft)
20.05.2016 07:00 5,0 C 95 % 1021,5 hPa 0,0 l/m 0,5 km/h (0 Bft) W-SW 4,4 C 5,0 C 1,9 km/h (1 Bft)
20.05.2016 08:00 10,2 C 82 % 1021,4 hPa 0,0 l/m 2,9 km/h (1 Bft) NO 7,2 C 10,2 C 6,3 km/h (2 Bft)
20.05.2016 09:00 11,8 C 75 % 1021,5 hPa 0,0 l/m 3,6 km/h (1 Bft) O 7,5 C 11,8 C 8,4 km/h (2 Bft)
20.05.2016 10:00 13,3 C 67 % 1021,5 hPa 0,0 l/m 3,8 km/h (1 Bft) O 7,3 C 13,3 C 9,7 km/h (2 Bft)
20.05.2016 11:00 14,7 C 60 % 1021,0 hPa 0,0 l/m 4,4 km/h (1 Bft) O-NO 6,9 C 14,7 C 10,2 km/h (2 Bft)
20.05.2016 12:00 16,0 C 51 % 1020,8 hPa 0,0 l/m 5,4 km/h (1 Bft) O-NO 5,7 C 15,9 C 12,5 km/h (2 Bft)
20.05.2016 13:00 17,4 C 49 % 1020,7 hPa 0,0 l/m 4,8 km/h (1 Bft) O 6,5 C 17,3 C 12,6 km/h (3 Bft)
20.05.2016 14:00 18,5 C 43 % 1020,3 hPa 0,0 l/m 5,7 km/h (2 Bft) NO 5,8 C 18,3 C 13,0 km/h (3 Bft)
20.05.2016 15:00 18,8 C 39 % 1020,1 hPa 0,0 l/m 5,1 km/h (1 Bft) O-NO 4,5 C 18,7 C 11,9 km/h (2 Bft)
20.05.2016 16:00 19,0 C 42 % 1020,0 hPa 0,0 l/m 4,9 km/h (1 Bft) O-SO 5,7 C 19,0 C 12,9 km/h (3 Bft)
20.05.2016 17:00 18,9 C 43 % 1019,9 hPa 0,0 l/m 4,1 km/h (1 Bft) O-NO 5,9 C 18,9 C 10,6 km/h (2 Bft)
20.05.2016 18:00 18,4 C 43 % 1019,8 hPa 0,0 l/m 3,5 km/h (1 Bft) O 5,7 C 18,4 C 8,1 km/h (2 Bft)
20.05.2016 19:00 16,7 C 50 % 1019,9 hPa 0,0 l/m 2,8 km/h (1 Bft) O 6,1 C 16,7 C 8,3 km/h (2 Bft)
20.05.2016 20:00 14,8 C 59 % 1020,1 hPa 0,0 l/m 0,5 km/h (0 Bft) O 6,8 C 14,8 C 1,4 km/h (1 Bft)
20.05.2016 21:00 12,7 C 70 % 1020,3 hPa 0,0 l/m 0,0 km/h (0 Bft) O 7,3 C 12,7 C 0,4 km/h (0 Bft)
20.05.2016 22:00 9,8 C 81 % 1020,5 hPa 0,0 l/m 0,1 km/h (0 Bft) O 6,7 C 9,8 C 0,4 km/h (0 Bft)
20.05.2016 23:00 8,1 C 86 % 1020,6 hPa 0,0 l/m 0,1 km/h (0 Bft) O 6,0 C 8,1 C 0,7 km/h (0 Bft)
21.05.2016 00:00 7,4 C 89 % 1020,6 hPa 0,0 l/m 0,1 km/h (0 Bft) O 5,6 C 7,4 C 0,6 km/h (0 Bft)
21.05.2016 01:00 6,2 C 91 % 1020,4 hPa 0,0 l/m 0,0 km/h (0 Bft) O 4,8 C 6,2 C 0,1 km/h (0 Bft)
21.05.2016 02:00 5,4 C 93 % 1020,1 hPa 0,0 l/m 0,0 km/h (0 Bft) O 4,3 C 5,4 C 0,5 km/h (0 Bft)
21.05.2016 03:00 5,1 C 93 % 1020,0 hPa 0,0 l/m 0,0 km/h (0 Bft) O 4,1 C 5,1 C 0,3 km/h (0 Bft)
21.05.2016 04:00 4,5 C 94 % 1019,8 hPa 0,0 l/m 0,0 km/h (0 Bft) O 3,6 C 4,5 C 0,1 km/h (0 Bft)
21.05.2016 05:00 4,2 C 95 % 1019,5 hPa 0,0 l/m 0,0 km/h (0 Bft) O 3,5 C 4,2 C 0,0 km/h (0 Bft)
21.05.2016 06:00 4,3 C 95 % 1019,4 hPa 0,0 l/m 0,0 km/h (0 Bft) O 3,6 C 4,3 C 0,0 km/h (0 Bft)
21.05.2016 07:00 6,0 C 95 % 1019,2 hPa 0,0 l/m 0,4 km/h (0 Bft) O 5,2 C 6,0 C 1,5 km/h (1 Bft)
21.05.2016 08:00 11,3 C 82 % 1019,1 hPa 0,0 l/m 0,4 km/h (0 Bft) O 8,4 C 11,3 C 1,6 km/h (1 Bft)
21.05.2016 09:00 15,1 C 68 % 1018,7 hPa 0,0 l/m 2,1 km/h (1 Bft) O 9,2 C 15,1 C 5,8 km/h (2 Bft)
21.05.2016 10:00 17,4 C 58 % 1018,3 hPa 0,0 l/m 4,8 km/h (1 Bft) N-NO 9,1 C 17,4 C 11,7 km/h (2 Bft)
21.05.2016 11:00 19,4 C 50 % 1017,5 hPa 0,0 l/m 3,6 km/h (1 Bft) O-NO 8,7 C 19,4 C 9,4 km/h (2 Bft)
21.05.2016 12:00 20,4 C 48 % 1017,1 hPa 0,0 l/m 4,2 km/h (1 Bft) O 9,1 C 20,4 C 9,4 km/h (2 Bft)
21.05.2016 13:00 21,8 C 45 % 1016,7 hPa 0,0 l/m 3,7 km/h (1 Bft) O-NO 9,3 C 21,8 C 8,9 km/h (2 Bft)
21.05.2016 14:00 23,1 C 43 % 1016,1 hPa 0,0 l/m 3,9 km/h (1 Bft) N-NO 9,7 C 23,1 C 8,9 km/h (2 Bft)
21.05.2016 15:00 23,5 C 43 % 1015,8 hPa 0,0 l/m 4,4 km/h (1 Bft) NO 10,2 C 23,5 C 9,9 km/h (2 Bft)
21.05.2016 16:00 23,5 C 41 % 1015,5 hPa 0,0 l/m 5,1 km/h (1 Bft) O-NO 9,5 C 23,5 C 12,5 km/h (2 Bft)
21.05.2016 17:00 23,4 C 34 % 1015,4 hPa 0,0 l/m 4,0 km/h (1 Bft) O-NO 6,4 C 23,4 C 10,5 km/h (2 Bft)
21.05.2016 18:00 23,2 C 33 % 1015,2 hPa 0,0 l/m 3,6 km/h (1 Bft) NO 6,0 C 23,2 C 6,9 km/h (2 Bft)
21.05.2016 19:00 21,9 C 37 % 1014,9 hPa 0,0 l/m 1,3 km/h (1 Bft) SO 6,5 C 21,9 C 4,0 km/h (1 Bft)
21.05.2016 20:00 18,3 C 52 % 1014,8 hPa 0,0 l/m 0,3 km/h (0 Bft) NO 8,1 C 18,3 C 1,2 km/h (1 Bft)
21.05.2016 21:00 15,3 C 63 % 1014,8 hPa 0,0 l/m 0,0 km/h (0 Bft) NO 8,2 C 15,3 C 0,5 km/h (0 Bft)
21.05.2016 22:00 12,3 C 75 % 1014,8 hPa 0,0 l/m 0,1 km/h (0 Bft) NO 7,9 C 12,3 C 1,1 km/h (0 Bft)
21.05.2016 23:00 11,2 C 78 % 1014,4 hPa 0,0 l/m 0,0 km/h (0 Bft) NO 7,4 C 11,2 C 0,0 km/h (0 Bft)
22.05.2016 00:00 10,1 C 81 % 1013,8 hPa 0,0 l/m 0,0 km/h (0 Bft) NO 7,1 C 10,1 C 0,5 km/h (0 Bft)
22.05.2016 01:00 9,1 C 85 % 1013,0 hPa 0,0 l/m 0,0 km/h (0 Bft) NO 6,8 C 9,1 C 0,4 km/h (0 Bft)
22.05.2016 02:00 8,4 C 88 % 1012,5 hPa 0,0 l/m 0,0 km/h (0 Bft) NO 6,6 C 8,4 C 0,3 km/h (0 Bft)
22.05.2016 03:00 8,1 C 90 % 1012,2 hPa 0,0 l/m 0,0 km/h (0 Bft) NO 6,6 C 8,1 C 0,2 km/h (0 Bft)
22.05.2016 04:00 7,4 C 92 % 1011,9 hPa 0,0 l/m 0,0 km/h (0 Bft) NO 6,1 C 7,4 C 0,0 km/h (0 Bft)
22.05.2016 05:00 6,8 C 93 % 1011,4 hPa 0,0 l/m 0,0 km/h (0 Bft) NO 5,7 C 6,8 C 0,0 km/h (0 Bft)
22.05.2016 06:00 6,8 C 94 % 1011,2 hPa 0,0 l/m 0,1 km/h (0 Bft) NO 5,8 C 6,8 C 0,4 km/h (0 Bft)
22.05.2016 07:00 10,3 C 88 % 1011,0 hPa 0,0 l/m 0,2 km/h (0 Bft) NO 8,2 C 10,3 C 1,1 km/h (0 Bft)
22.05.2016 08:00 17,9 C 66 % 1011,0 hPa 0,0 l/m 0,9 km/h (0 Bft) NW 11,5 C 17,9 C 2,6 km/h (1 Bft)
22.05.2016 09:00 21,1 C 52 % 1010,6 hPa 0,0 l/m 2,9 km/h (1 Bft) O-NO 11,0 C 21,1 C 7,5 km/h (2 Bft)
22.05.2016 10:00 22,5 C 48 % 1009,9 hPa 0,0 l/m 3,4 km/h (1 Bft) O-NO 11,0 C 22,5 C 8,7 km/h (2 Bft)
22.05.2016 11:00 23,0 C 47 % 1009,1 hPa 0,0 l/m 2,6 km/h (1 Bft) O-NO 11,1 C 23,0 C 5,5 km/h (2 Bft)
22.05.2016 12:00 23,9 C 44 % 1008,6 hPa 0,0 l/m 3,1 km/h (1 Bft) O-NO 10,9 C 23,9 C 6,2 km/h (2 Bft)
22.05.2016 13:00 25,3 C 41 % 1007,9 hPa 0,0 l/m 3,9 km/h (1 Bft) O 10,9 C 25,3 C 8,9 km/h (2 Bft)
22.05.2016 14:00 26,2 C 40 % 1007,3 hPa 0,0 l/m 3,5 km/h (1 Bft) O 11,3 C 26,2 C 8,0 km/h (2 Bft)
22.05.2016 15:00 26,8 C 39 % 1006,9 hPa 0,0 l/m 5,5 km/h (2 Bft) O-NO 11,6 C 26,8 C 12,1 km/h (2 Bft)
22.05.2016 16:00 25,2 C 40 % 1007,0 hPa 0,0 l/m 6,0 km/h (2 Bft) O-SO 10,5 C 25,1 C 16,8 km/h (3 Bft)
22.05.2016 17:00 22,5 C 44 % 1007,3 hPa 0,0 l/m 5,9 km/h (2 Bft) O 9,6 C 22,3 C 15,0 km/h (3 Bft)
22.05.2016 18:00 21,1 C 40 % 1007,6 hPa 0,0 l/m 4,7 km/h (1 Bft) O 7,1 C 21,1 C 12,3 km/h (2 Bft)
22.05.2016 19:00 18,8 C 47 % 1008,7 hPa 0,0 l/m 4,4 km/h (1 Bft) O 7,2 C 18,8 C 11,4 km/h (2 Bft)
22.05.2016 20:00 14,6 C 69 % 1009,5 hPa 0,3 l/m 6,0 km/h (2 Bft) O-NO 8,9 C 14,1 C 14,8 km/h (3 Bft)
22.05.2016 21:00 13,0 C 76 % 1010,0 hPa 0,0 l/m 4,8 km/h (1 Bft) NO 8,9 C 12,8 C 12,7 km/h (3 Bft)
22.05.2016 22:00 12,3 C 78 % 1010,4 hPa 0,3 l/m 8,3 km/h (2 Bft) O-NO 8,5 C 11,1 C 21,0 km/h (4 Bft)
22.05.2016 23:00 12,0 C 75 % 1010,5 hPa 0,0 l/m 10,7 km/h (2 Bft) O 7,7 C 9,5 C 23,1 km/h (4 Bft)
Min-Datum _ 20.05.16 21.05.16 19.05.16 - 22.05.16 - 16.05.16 16.05.16 22.05.16
_ Min-Zeit 06:25 18:10 03:00 - 09:00 - 01:43 09:51 07:05
Minimum _ 2,6 C 31 % 1006,6 hPa - 0,0 km/h (0 Bft) - 1,0 C 1,5 C 0,0 km/h (0 Bft)
Max-Datum _ 22.05.16 20.05.16 16.05.16 19.05.16 22.05.16 - 22.05.16 22.05.16 22.05.16
_ Max-Zeit 15:15 07:25 00:47 03:20 23:58 - 13:30 15:15 23:10
Maximum _ 27,5 C 98 % 1022,7 hPa 4,6 l/m 14,5 km/h
O (3 Bft)
- 13,0 C 27,5 C 45,1 km/h
NO (6 Bft)
Durchschnitt _ 11,2 C 74 % 1016,1 hPa #11,7 l/m 2,5 km/h (1 Bft) O 5,9 C 11,1 C 6,0 km/h (2 Bft)